createdAt,value
2018-01-16T00:00:04.711Z,79.06
2018-01-16T00:00:18.442Z,79.05
2018-01-16T00:00:32.282Z,79.05
2018-01-16T00:00:46.062Z,79.05
2018-01-16T00:00:59.947Z,79.04
2018-01-16T00:01:13.587Z,79.01
2018-01-16T00:01:27.249Z,79.01
2018-01-16T00:01:41.151Z,79.00
2018-01-16T00:01:54.991Z,78.98
2018-01-16T00:02:08.641Z,78.98
2018-01-16T00:02:22.340Z,78.98
2018-01-16T00:02:36.060Z,78.96
2018-01-16T00:02:49.848Z,78.96
2018-01-16T00:03:03.453Z,78.95
2018-01-16T00:03:17.147Z,78.95
2018-01-16T00:03:31.017Z,78.94
2018-01-16T00:03:44.668Z,78.93
2018-01-16T00:03:58.064Z,78.92
2018-01-16T00:04:11.718Z,78.92
2018-01-16T00:04:25.455Z,78.91
2018-01-16T00:04:39.109Z,78.91
2018-01-16T00:04:52.683Z,78.90
2018-01-16T00:05:06.483Z,78.89
2018-01-16T00:05:20.284Z,78.89
2018-01-16T00:05:33.958Z,78.85
2018-01-16T00:05:47.708Z,78.87
2018-01-16T00:06:01.523Z,78.86
2018-01-16T00:06:15.337Z,78.86
2018-01-16T00:06:29.231Z,78.85
2018-01-16T00:06:43.004Z,78.82
2018-01-16T00:06:56.828Z,78.82
2018-01-16T00:07:10.479Z,78.81
2018-01-16T00:07:24.335Z,78.80
2018-01-16T00:07:38.175Z,78.79
2018-01-16T00:07:51.973Z,78.78
2018-01-16T00:08:05.667Z,78.77
2018-01-16T00:08:19.410Z,78.76
2018-01-16T00:08:33.228Z,78.75
2018-01-16T00:08:47.170Z,78.73
2018-01-16T00:09:00.823Z,78.72
2018-01-16T00:09:14.631Z,78.70
2018-01-16T00:09:28.526Z,78.68
2018-01-16T00:09:42.470Z,78.67
2018-01-16T00:09:56.365Z,78.66
2018-01-16T00:10:10.007Z,78.66
2018-01-16T00:10:23.873Z,78.66
2018-01-16T00:10:37.691Z,78.64
2018-01-16T00:10:51.453Z,78.64
2018-01-16T00:11:05.128Z,78.63
2018-01-16T00:11:18.887Z,78.63
2018-01-16T00:11:32.620Z,78.63
2018-01-16T00:11:46.475Z,78.63
2018-01-16T00:12:00.339Z,78.63
2018-01-16T00:12:14.098Z,78.62
2018-01-16T00:12:27.717Z,78.61
2018-01-16T00:12:41.539Z,78.61
2018-01-16T00:12:55.279Z,78.60
2018-01-16T00:13:09.069Z,78.60
2018-01-16T00:13:22.716Z,78.59
2018-01-16T00:13:36.387Z,78.58
2018-01-16T00:13:50.103Z,78.56
2018-01-16T00:14:03.983Z,78.56
2018-01-16T00:14:17.872Z,78.56
2018-01-16T00:14:31.514Z,78.56
2018-01-16T00:14:45.396Z,78.55
2018-01-16T00:14:59.015Z,78.54
2018-01-16T00:15:12.654Z,78.54
2018-01-16T00:15:26.303Z,78.53
2018-01-16T00:15:40.130Z,78.53
2018-01-16T00:15:53.907Z,78.53
2018-01-16T00:16:07.670Z,78.53
2018-01-16T00:16:21.459Z,78.53
2018-01-16T00:16:35.124Z,78.52
2018-01-16T00:16:48.861Z,78.52
2018-01-16T00:17:02.702Z,78.47
2018-01-16T00:17:16.643Z,78.50
2018-01-16T00:17:30.323Z,78.45
2018-01-16T00:17:44.130Z,78.48
2018-01-16T00:17:57.783Z,78.47
2018-01-16T00:18:11.404Z,78.46
2018-01-16T00:18:25.210Z,78.46
2018-01-16T00:18:38.998Z,78.45
2018-01-16T00:18:52.657Z,78.44
2018-01-16T00:19:06.366Z,78.43
2018-01-16T00:19:20.192Z,78.42
2018-01-16T00:19:33.831Z,78.41
2018-01-16T00:19:47.568Z,78.41
2018-01-16T00:20:01.259Z,78.40
2018-01-16T00:20:15.227Z,78.40
2018-01-16T00:20:29.233Z,78.38
2018-01-16T00:20:42.990Z,78.38
2018-01-16T00:20:57.836Z,78.37
2018-01-16T00:21:11.587Z,78.37
2018-01-16T00:21:25.346Z,78.37
2018-01-16T00:21:39.215Z,78.36
2018-01-16T00:21:52.936Z,78.34
2018-01-16T00:22:06.703Z,78.34
2018-01-16T00:22:26.065Z,78.32
2018-01-16T00:22:41.532Z,78.31
2018-01-16T00:22:55.480Z,78.31
2018-01-16T00:23:09.236Z,78.30
2018-01-16T00:23:23.162Z,78.30
2018-01-16T00:23:37.158Z,78.30
2018-01-16T00:23:51.041Z,78.30
2018-01-16T00:24:05.130Z,78.29
2018-01-16T00:24:19.015Z,78.29
2018-01-16T00:24:32.729Z,78.30
2018-01-16T00:24:46.503Z,78.29
2018-01-16T00:25:00.303Z,78.29
2018-01-16T00:25:14.097Z,78.28
2018-01-16T00:25:27.850Z,78.28
2018-01-16T00:25:41.507Z,78.28
2018-01-16T00:25:55.331Z,78.27
2018-01-16T00:26:09.625Z,78.27
2018-01-16T00:26:24.051Z,78.26
2018-01-16T00:26:38.352Z,78.24
2018-01-16T00:26:51.997Z,78.23
2018-01-16T00:27:05.693Z,78.23
2018-01-16T00:27:19.420Z,78.23
2018-01-16T00:27:33.202Z,78.23
2018-01-16T00:27:47.073Z,78.22
2018-01-16T00:28:00.969Z,78.20
2018-01-16T00:28:14.839Z,78.16
2018-01-16T00:28:28.675Z,78.17
2018-01-16T00:28:42.615Z,78.16
2018-01-16T00:28:56.420Z,78.14
2018-01-16T00:29:10.068Z,78.14
2018-01-16T00:29:23.778Z,78.12
2018-01-16T00:29:37.508Z,78.11
2018-01-16T00:29:51.487Z,78.11
2018-01-16T00:30:05.231Z,78.09
2018-01-16T00:30:18.910Z,78.08
2018-01-16T00:30:32.705Z,78.09
2018-01-16T00:30:46.448Z,78.08
2018-01-16T00:31:00.203Z,78.06
2018-01-16T00:31:13.989Z,78.05
2018-01-16T00:31:27.861Z,78.06
2018-01-16T00:31:41.780Z,78.06
2018-01-16T00:31:55.599Z,78.05
2018-01-16T00:32:09.367Z,78.03
2018-01-16T00:32:22.984Z,78.02
2018-01-16T00:32:36.883Z,78.02
2018-01-16T00:32:50.608Z,78.01
2018-01-16T00:33:04.588Z,78.01
2018-01-16T00:33:18.357Z,78.01
2018-01-16T00:33:32.201Z,78.01
2018-01-16T00:33:45.838Z,78.05
2018-01-16T00:33:59.451Z,78.00
2018-01-16T00:34:13.193Z,78.00
2018-01-16T00:34:26.986Z,78.00
2018-01-16T00:34:40.723Z,78.00
2018-01-16T00:34:54.404Z,78.00
2018-01-16T00:35:08.344Z,78.00
2018-01-16T00:35:22.224Z,78.00
2018-01-16T00:35:35.971Z,77.99
2018-01-16T00:35:49.746Z,77.98
2018-01-16T00:36:03.615Z,77.97
2018-01-16T00:36:17.278Z,77.96
2018-01-16T00:36:31.100Z,77.94
2018-01-16T00:36:44.949Z,77.92
2018-01-16T00:36:58.687Z,77.91
2018-01-16T00:37:12.578Z,77.91
2018-01-16T00:37:26.371Z,77.91
2018-01-16T00:37:40.240Z,77.91
2018-01-16T00:37:53.902Z,77.91
2018-01-16T00:38:07.795Z,77.91
2018-01-16T00:38:21.603Z,77.88
2018-01-16T00:38:35.312Z,77.87
2018-01-16T00:38:49.331Z,77.84
2018-01-16T00:39:03.263Z,77.82
2018-01-16T00:39:16.870Z,77.80
2018-01-16T00:39:30.547Z,77.78
2018-01-16T00:39:44.231Z,77.77
2018-01-16T00:39:57.953Z,77.77
2018-01-16T00:40:11.627Z,77.77
2018-01-16T00:40:25.423Z,77.76
2018-01-16T00:40:39.036Z,77.77
2018-01-16T00:40:52.855Z,77.76
2018-01-16T00:41:06.602Z,77.76
2018-01-16T00:41:20.395Z,77.71
2018-01-16T00:41:34.220Z,77.75
2018-01-16T00:41:48.052Z,77.74
2018-01-16T00:42:01.900Z,77.72
2018-01-16T00:42:15.667Z,77.69
2018-01-16T00:42:29.373Z,77.67
2018-01-16T00:42:43.099Z,77.66
2018-01-16T00:42:56.782Z,77.66
2018-01-16T00:43:10.528Z,77.65
2018-01-16T00:43:24.284Z,77.63
2018-01-16T00:43:37.904Z,77.63
2018-01-16T00:43:51.651Z,77.63
2018-01-16T00:44:05.410Z,77.63
2018-01-16T00:44:19.286Z,77.61
2018-01-16T00:44:33.013Z,77.58
2018-01-16T00:44:47.001Z,77.57
2018-01-16T00:45:00.871Z,77.57
2018-01-16T00:45:14.537Z,77.57
2018-01-16T00:45:28.243Z,77.55
2018-01-16T00:45:42.027Z,77.51
2018-01-16T00:45:55.743Z,77.49
2018-01-16T00:46:09.487Z,77.50
2018-01-16T00:46:23.231Z,77.49
2018-01-16T00:46:36.923Z,77.49
2018-01-16T00:46:50.883Z,77.47
2018-01-16T00:47:04.559Z,77.46
2018-01-16T00:47:18.426Z,77.44
2018-01-16T00:47:32.316Z,77.42
2018-01-16T00:47:45.981Z,77.42
2018-01-16T00:47:59.757Z,77.43
2018-01-16T00:48:13.559Z,77.42
2018-01-16T00:48:27.199Z,77.41
2018-01-16T00:48:41.033Z,77.38
2018-01-16T00:48:54.752Z,77.36
2018-01-16T00:49:08.587Z,77.34
2018-01-16T00:49:22.227Z,77.34
2018-01-16T00:49:35.973Z,77.32
2018-01-16T00:49:49.752Z,77.31
2018-01-16T00:50:03.467Z,77.31
2018-01-16T00:50:17.161Z,77.27
2018-01-16T00:50:30.936Z,77.29
2018-01-16T00:50:44.699Z,77.28
2018-01-16T00:50:58.495Z,77.27
2018-01-16T00:51:12.331Z,77.27
2018-01-16T00:51:26.143Z,77.28
2018-01-16T00:51:39.771Z,77.27
2018-01-16T00:51:53.544Z,77.26
2018-01-16T00:52:07.275Z,77.25
2018-01-16T00:52:20.958Z,77.24
2018-01-16T00:52:34.672Z,77.24
2018-01-16T00:52:48.419Z,77.24
2018-01-16T00:53:02.132Z,77.22
2018-01-16T00:53:16.022Z,77.21
2018-01-16T00:53:29.849Z,77.21
2018-01-16T00:53:43.522Z,77.19
2018-01-16T00:53:57.199Z,77.18
2018-01-16T00:54:10.980Z,77.17
2018-01-16T00:54:24.763Z,77.16
2018-01-16T00:54:38.617Z,77.16
2018-01-16T00:54:52.367Z,77.14
2018-01-16T00:55:06.035Z,77.12
2018-01-16T00:55:19.782Z,77.11
2018-01-16T00:55:33.463Z,77.10
2018-01-16T00:55:47.238Z,77.09
2018-01-16T00:56:00.898Z,77.09
2018-01-16T00:56:14.731Z,77.06
2018-01-16T00:56:28.525Z,77.07
2018-01-16T00:56:42.309Z,77.06
2018-01-16T00:56:55.907Z,77.04
2018-01-16T00:57:09.720Z,77.03
2018-01-16T00:57:23.466Z,77.01
2018-01-16T00:57:37.095Z,77.00
2018-01-16T00:57:50.806Z,77.00
2018-01-16T00:58:04.729Z,76.99
2018-01-16T00:58:18.661Z,76.98
2018-01-16T00:58:32.476Z,76.96
2018-01-16T00:58:46.148Z,76.96
2018-01-16T00:58:59.813Z,76.94
2018-01-16T00:59:13.502Z,76.95
2018-01-16T00:59:27.158Z,76.94
2018-01-16T00:59:40.863Z,76.93
2018-01-16T00:59:55.692Z,76.93
2018-01-16T01:00:09.428Z,76.93
2018-01-16T01:00:23.146Z,76.93
2018-01-16T01:00:36.850Z,76.94
2018-01-16T01:00:50.602Z,76.94
2018-01-16T01:01:04.234Z,76.92
2018-01-16T01:01:17.989Z,76.91
2018-01-16T01:01:31.847Z,76.90
2018-01-16T01:01:45.535Z,76.90
2018-01-16T01:01:59.195Z,76.88
2018-01-16T01:02:12.794Z,76.88
2018-01-16T01:02:26.440Z,76.87
2018-01-16T01:02:40.148Z,76.88
2018-01-16T01:02:53.879Z,76.88
2018-01-16T01:03:08.511Z,76.85
2018-01-16T01:03:22.286Z,76.84
2018-01-16T01:03:36.396Z,76.82
2018-01-16T01:03:50.328Z,76.81
2018-01-16T01:04:04.068Z,76.80
2018-01-16T01:04:17.743Z,76.80
2018-01-16T01:04:31.367Z,76.80
2018-01-16T01:04:44.990Z,76.81
2018-01-16T01:04:58.647Z,76.81
2018-01-16T01:05:12.342Z,76.81
2018-01-16T01:05:26.221Z,76.79
2018-01-16T01:05:40.259Z,76.78
2018-01-16T01:05:53.919Z,76.78
2018-01-16T01:06:07.798Z,76.76
2018-01-16T01:06:21.595Z,76.76
2018-01-16T01:06:35.458Z,76.74
2018-01-16T01:06:49.286Z,76.74
2018-01-16T01:07:03.300Z,76.74
2018-01-16T01:07:17.074Z,76.72
2018-01-16T01:07:30.872Z,76.70
2018-01-16T01:07:44.543Z,76.68
2018-01-16T01:07:58.259Z,76.69
2018-01-16T01:08:11.972Z,76.68
2018-01-16T01:08:25.932Z,76.68
2018-01-16T01:08:39.664Z,76.67
2018-01-16T01:08:53.463Z,76.67
2018-01-16T01:09:07.375Z,76.62
2018-01-16T01:09:21.055Z,76.66
2018-01-16T01:09:34.755Z,76.64
2018-01-16T01:09:48.571Z,76.64
2018-01-16T01:10:02.330Z,76.64
2018-01-16T01:10:15.942Z,76.64
2018-01-16T01:10:29.606Z,76.63
2018-01-16T01:10:43.263Z,76.63
2018-01-16T01:10:56.962Z,76.63
2018-01-16T01:11:10.726Z,76.64
2018-01-16T01:11:24.390Z,76.64
2018-01-16T01:11:38.007Z,76.64
2018-01-16T01:11:51.848Z,76.64
2018-01-16T01:12:05.857Z,76.64
2018-01-16T01:12:19.496Z,76.64
2018-01-16T01:12:33.311Z,76.64
2018-01-16T01:12:47.130Z,76.64
2018-01-16T01:13:01.040Z,76.62
2018-01-16T01:13:14.784Z,76.62
2018-01-16T01:13:28.443Z,76.62
2018-01-16T01:13:42.335Z,76.62
2018-01-16T01:13:56.102Z,76.61
2018-01-16T01:14:09.838Z,76.61
2018-01-16T01:14:23.523Z,76.61
2018-01-16T01:14:37.326Z,76.61
2018-01-16T01:14:51.257Z,76.61
2018-01-16T01:15:05.067Z,76.60
2018-01-16T01:15:18.891Z,76.59
2018-01-16T01:15:32.663Z,76.58
2018-01-16T01:15:46.401Z,76.58
2018-01-16T01:16:00.322Z,76.58
2018-01-16T01:16:14.083Z,76.57
2018-01-16T01:16:27.895Z,76.57
2018-01-16T01:16:41.616Z,76.57
2018-01-16T01:16:55.306Z,76.57
2018-01-16T01:17:08.971Z,76.57
2018-01-16T01:17:22.659Z,76.57
2018-01-16T01:17:37.428Z,76.57
2018-01-16T01:17:51.127Z,76.58
2018-01-16T01:18:04.946Z,76.58
2018-01-16T01:18:18.703Z,76.56
2018-01-16T01:18:32.479Z,76.57
2018-01-16T01:18:46.285Z,76.57
2018-01-16T01:19:00.029Z,76.57
2018-01-16T01:19:13.868Z,76.57
2018-01-16T01:19:27.602Z,76.57
2018-01-16T01:19:41.479Z,76.57
2018-01-16T01:19:55.255Z,76.56
2018-01-16T01:20:08.937Z,76.55
2018-01-16T01:20:22.712Z,76.57
2018-01-16T01:20:36.361Z,76.57
2018-01-16T01:20:50.051Z,76.56
2018-01-16T01:21:03.914Z,76.56
2018-01-16T01:21:17.558Z,76.57
2018-01-16T01:21:31.204Z,76.55
2018-01-16T01:21:45.051Z,76.55
2018-01-16T01:21:58.856Z,76.55
2018-01-16T01:22:12.487Z,76.55
2018-01-16T01:22:26.138Z,76.54
2018-01-16T01:22:39.886Z,76.54
2018-01-16T01:22:53.538Z,76.54
2018-01-16T01:23:07.283Z,76.53
2018-01-16T01:23:20.951Z,76.53
2018-01-16T01:23:34.703Z,76.53
2018-01-16T01:23:48.513Z,76.53
2018-01-16T01:24:02.243Z,76.53
2018-01-16T01:24:15.864Z,76.53
2018-01-16T01:24:29.567Z,76.53
2018-01-16T01:24:43.370Z,76.52
2018-01-16T01:24:57.102Z,76.51
2018-01-16T01:25:10.903Z,76.50
2018-01-16T01:25:24.587Z,76.50
2018-01-16T01:25:38.376Z,76.50
2018-01-16T01:25:52.139Z,76.50
2018-01-16T01:26:05.890Z,76.50
2018-01-16T01:26:19.650Z,76.50
2018-01-16T01:26:33.523Z,76.50
2018-01-16T01:26:47.342Z,76.49
2018-01-16T01:27:00.996Z,76.49
2018-01-16T01:27:14.672Z,76.49
2018-01-16T01:27:28.481Z,76.48
2018-01-16T01:27:42.291Z,76.46
2018-01-16T01:27:55.995Z,76.46
2018-01-16T01:28:09.921Z,76.46
2018-01-16T01:28:23.778Z,76.45
2018-01-16T01:28:37.519Z,76.44
2018-01-16T01:28:51.295Z,76.44
2018-01-16T01:29:05.145Z,76.43
2018-01-16T01:29:18.938Z,76.42
2018-01-16T01:29:32.798Z,76.42
2018-01-16T01:29:46.473Z,76.42
2018-01-16T01:30:00.303Z,76.42
2018-01-16T01:30:13.879Z,76.42
2018-01-16T01:30:27.642Z,76.40
2018-01-16T01:30:41.549Z,76.40
2018-01-16T01:30:55.173Z,76.40
2018-01-16T01:31:08.929Z,76.40
2018-01-16T01:31:22.628Z,76.39
2018-01-16T01:31:36.389Z,76.38
2018-01-16T01:31:50.307Z,76.39
2018-01-16T01:32:04.128Z,76.39
2018-01-16T01:32:17.832Z,76.39
2018-01-16T01:32:31.495Z,76.39
2018-01-16T01:32:45.101Z,76.34
2018-01-16T01:32:58.844Z,76.39
2018-01-16T01:33:12.688Z,76.38
2018-01-16T01:33:26.380Z,76.38
2018-01-16T01:33:40.315Z,76.38
2018-01-16T01:33:54.011Z,76.38
2018-01-16T01:34:07.864Z,76.38
2018-01-16T01:34:21.626Z,76.38
2018-01-16T01:34:35.379Z,76.39
2018-01-16T01:34:49.211Z,76.38
2018-01-16T01:35:03.129Z,76.38
2018-01-16T01:35:16.932Z,76.38
2018-01-16T01:35:30.708Z,76.38
2018-01-16T01:35:44.478Z,76.39
2018-01-16T01:35:58.162Z,76.39
2018-01-16T01:36:11.851Z,76.39
2018-01-16T01:36:25.517Z,76.37
2018-01-16T01:36:39.208Z,76.37
2018-01-16T01:36:53.132Z,76.37
2018-01-16T01:37:07.832Z,76.38
2018-01-16T01:37:21.451Z,76.38
2018-01-16T01:37:35.151Z,76.38
2018-01-16T01:37:48.783Z,76.38
2018-01-16T01:38:03.694Z,76.37
2018-01-16T01:38:17.424Z,76.38
2018-01-16T01:38:31.166Z,76.37
2018-01-16T01:38:44.821Z,76.38
2018-01-16T01:38:58.830Z,76.38
2018-01-16T01:39:12.537Z,76.39
2018-01-16T01:39:26.220Z,76.39
2018-01-16T01:39:39.870Z,76.39
2018-01-16T01:39:54.256Z,76.39
2018-01-16T01:40:07.896Z,76.39
2018-01-16T01:40:21.669Z,76.40
2018-01-16T01:40:35.319Z,76.40
2018-01-16T01:40:49.002Z,76.40
2018-01-16T01:41:02.793Z,76.40
2018-01-16T01:41:16.552Z,76.39
2018-01-16T01:41:30.291Z,76.40
2018-01-16T01:41:44.087Z,76.38
2018-01-16T01:41:57.887Z,76.38
2018-01-16T01:42:11.513Z,76.38
2018-01-16T01:42:25.117Z,76.38
2018-01-16T01:42:38.708Z,76.38
2018-01-16T01:42:52.383Z,76.37
2018-01-16T01:43:06.042Z,76.38
2018-01-16T01:43:19.843Z,76.38
2018-01-16T01:43:33.636Z,76.40
2018-01-16T01:43:47.473Z,76.41
2018-01-16T01:44:01.153Z,76.42
2018-01-16T01:44:14.974Z,76.42
2018-01-16T01:44:28.780Z,76.42
2018-01-16T01:44:42.403Z,76.42
2018-01-16T01:44:56.087Z,76.43
2018-01-16T01:45:09.942Z,76.45
2018-01-16T01:45:23.785Z,76.45
2018-01-16T01:45:37.695Z,76.45
2018-01-16T01:45:51.563Z,76.46
2018-01-16T01:46:05.372Z,76.46
2018-01-16T01:46:19.050Z,76.47
2018-01-16T01:46:32.725Z,76.48
2018-01-16T01:46:46.391Z,76.48
2018-01-16T01:47:00.050Z,76.48
2018-01-16T01:47:13.919Z,76.48
2018-01-16T01:47:27.620Z,76.48
2018-01-16T01:47:41.405Z,76.48
2018-01-16T01:47:55.319Z,76.48
2018-01-16T01:48:09.083Z,76.48
2018-01-16T01:48:22.886Z,76.48
2018-01-16T01:48:36.808Z,76.49
2018-01-16T01:48:50.279Z,76.49
2018-01-16T01:49:10.471Z,76.49
2018-01-16T01:49:24.881Z,76.52
2018-01-16T01:49:38.676Z,76.53
2018-01-16T01:49:52.582Z,76.55
2018-01-16T01:50:06.430Z,76.56
2018-01-16T01:50:20.198Z,76.55
2018-01-16T01:50:33.962Z,76.56
2018-01-16T01:50:47.698Z,76.57
2018-01-16T01:51:01.583Z,76.57
2018-01-16T01:51:15.343Z,76.58
2018-01-16T01:51:29.015Z,76.58
2018-01-16T01:51:42.749Z,76.58
2018-01-16T01:51:56.653Z,76.59
2018-01-16T01:52:10.428Z,76.60
2018-01-16T01:52:24.291Z,76.59
2018-01-16T01:52:37.971Z,76.60
2018-01-16T01:52:51.849Z,76.60
2018-01-16T01:53:05.688Z,76.60
2018-01-16T01:53:19.609Z,76.60
2018-01-16T01:53:33.335Z,76.60
2018-01-16T01:53:47.097Z,76.60
2018-01-16T01:54:00.818Z,76.59
2018-01-16T01:54:14.569Z,76.59
2018-01-16T01:54:28.182Z,76.58
2018-01-16T01:54:41.807Z,76.59
2018-01-16T01:54:55.507Z,76.59
2018-01-16T01:55:09.228Z,76.58
2018-01-16T01:55:24.099Z,76.58
2018-01-16T01:55:38.104Z,76.59
2018-01-16T01:55:51.917Z,76.60
2018-01-16T01:56:05.583Z,76.59
2018-01-16T01:56:19.264Z,76.60
2018-01-16T01:56:33.003Z,76.59
2018-01-16T01:56:46.820Z,76.58
2018-01-16T01:57:00.547Z,76.57
2018-01-16T01:57:14.233Z,76.57
2018-01-16T01:57:27.959Z,76.56
2018-01-16T01:57:41.785Z,76.55
2018-01-16T01:57:55.455Z,76.55
2018-01-16T01:58:09.244Z,76.56
2018-01-16T01:58:23.024Z,76.56
2018-01-16T01:58:36.907Z,76.56
2018-01-16T01:58:50.798Z,76.55
2018-01-16T01:59:04.651Z,76.60
2018-01-16T01:59:18.465Z,76.56
2018-01-16T01:59:32.207Z,76.54
2018-01-16T01:59:46.099Z,76.54
2018-01-16T01:59:59.912Z,76.54
2018-01-16T02:00:13.743Z,76.54
2018-01-16T02:00:27.545Z,76.54
2018-01-16T02:00:41.266Z,76.51
2018-01-16T02:00:55.037Z,76.50
2018-01-16T02:01:08.907Z,76.50
2018-01-16T02:01:22.638Z,76.48
2018-01-16T02:01:36.471Z,76.47
2018-01-16T02:01:50.111Z,76.47
2018-01-16T02:02:03.859Z,76.47
2018-01-16T02:02:17.648Z,76.47
2018-01-16T02:02:31.882Z,76.48
2018-01-16T02:02:45.455Z,76.48
2018-01-16T02:02:59.179Z,76.48
2018-01-16T02:03:12.815Z,76.49
2018-01-16T02:03:26.654Z,76.49
2018-01-16T02:03:40.336Z,76.50
2018-01-16T02:03:54.169Z,76.50
2018-01-16T02:04:07.868Z,76.52
2018-01-16T02:04:21.668Z,76.52
2018-01-16T02:04:35.327Z,76.52
2018-01-16T02:04:48.973Z,76.53
2018-01-16T02:05:02.691Z,76.54
2018-01-16T02:05:16.427Z,76.54
2018-01-16T02:05:30.044Z,76.55
2018-01-16T02:05:43.703Z,76.56
2018-01-16T02:05:57.344Z,76.56
2018-01-16T02:06:11.030Z,76.57
2018-01-16T02:06:24.951Z,76.58
2018-01-16T02:06:38.683Z,76.59
2018-01-16T02:06:52.339Z,76.61
2018-01-16T02:07:06.091Z,76.61
2018-01-16T02:07:19.776Z,76.62
2018-01-16T02:07:33.388Z,76.62
2018-01-16T02:07:47.035Z,76.62
2018-01-16T02:08:00.706Z,76.63
2018-01-16T02:08:14.455Z,76.65
2018-01-16T02:08:48.364Z,76.65
2018-01-16T02:09:02.136Z,76.65
2018-01-16T02:09:15.815Z,76.66
2018-01-16T02:09:30.628Z,76.67
2018-01-16T02:09:44.343Z,76.68
2018-01-16T02:09:58.178Z,76.68
2018-01-16T02:10:11.807Z,76.68
2018-01-16T02:10:25.540Z,76.69
2018-01-16T02:10:39.412Z,76.70
2018-01-16T02:10:53.127Z,76.72
2018-01-16T02:11:07.077Z,76.70
2018-01-16T02:11:20.764Z,76.69
2018-01-16T02:11:34.667Z,76.70
2018-01-16T02:11:48.411Z,76.72
2018-01-16T02:12:02.075Z,76.72
2018-01-16T02:12:15.747Z,76.72
2018-01-16T02:12:29.419Z,76.73
2018-01-16T02:12:43.098Z,76.73
2018-01-16T02:12:56.698Z,76.73
2018-01-16T02:13:10.379Z,76.74
2018-01-16T02:13:24.242Z,76.74
2018-01-16T02:13:37.862Z,76.74
2018-01-16T02:13:51.584Z,76.75
2018-01-16T02:14:05.405Z,76.75
2018-01-16T02:14:19.301Z,76.74
2018-01-16T02:14:32.959Z,76.74
2018-01-16T02:14:46.735Z,76.73
2018-01-16T02:15:00.499Z,76.73
2018-01-16T02:15:14.147Z,76.72
2018-01-16T02:15:28.037Z,76.72
2018-01-16T02:15:41.799Z,76.70
2018-01-16T02:15:55.643Z,76.71
2018-01-16T02:16:09.475Z,76.70
2018-01-16T02:16:23.360Z,76.71
2018-01-16T02:16:37.216Z,76.71
2018-01-16T02:16:51.061Z,76.71
2018-01-16T02:17:04.833Z,76.69
2018-01-16T02:17:18.598Z,76.69
2018-01-16T02:17:32.370Z,76.68
2018-01-16T02:17:46.075Z,76.68
2018-01-16T02:17:59.908Z,76.67
2018-01-16T02:18:13.597Z,76.67
2018-01-16T02:18:27.286Z,76.67
2018-01-16T02:18:41.856Z,76.66
2018-01-16T02:18:56.328Z,76.66
2018-01-16T02:19:10.096Z,76.66
2018-01-16T02:19:23.985Z,76.66
2018-01-16T02:19:37.647Z,76.65
2018-01-16T02:19:51.520Z,76.64
2018-01-16T02:20:05.367Z,76.63
2018-01-16T02:20:19.217Z,76.63
2018-01-16T02:20:33.117Z,76.62
2018-01-16T02:20:46.934Z,76.61
2018-01-16T02:21:00.839Z,76.60
2018-01-16T02:21:14.464Z,76.59
2018-01-16T02:21:28.133Z,76.58
2018-01-16T02:21:42.042Z,76.58
2018-01-16T02:21:55.951Z,76.57
2018-01-16T02:22:09.652Z,76.56
2018-01-16T02:22:23.329Z,76.55
2018-01-16T02:22:37.080Z,76.54
2018-01-16T02:22:50.683Z,76.55
2018-01-16T02:23:04.398Z,76.53
2018-01-16T02:23:18.127Z,76.52
2018-01-16T02:23:32.029Z,76.52
2018-01-16T02:23:45.849Z,76.52
2018-01-16T02:23:59.603Z,76.52
2018-01-16T02:24:13.399Z,76.51
2018-01-16T02:24:27.200Z,76.50
2018-01-16T02:24:40.865Z,76.50
2018-01-16T02:24:54.599Z,76.49
2018-01-16T02:25:08.356Z,76.50
2018-01-16T02:25:22.028Z,76.51
2018-01-16T02:25:35.943Z,76.52
2018-01-16T02:25:49.794Z,76.53
2018-01-16T02:26:03.680Z,76.54
2018-01-16T02:26:17.499Z,76.54
2018-01-16T02:26:31.325Z,76.55
2018-01-16T02:26:45.077Z,76.54
2018-01-16T02:26:58.844Z,76.55
2018-01-16T02:27:12.435Z,76.55
2018-01-16T02:27:26.089Z,76.56
2018-01-16T02:27:39.744Z,76.57
2018-01-16T02:27:53.553Z,76.58
2018-01-16T02:28:07.202Z,76.58
2018-01-16T02:28:20.995Z,76.57
2018-01-16T02:28:34.922Z,76.57
2018-01-16T02:28:48.731Z,76.57
2018-01-16T02:29:02.574Z,76.57
2018-01-16T02:29:16.210Z,76.57
2018-01-16T02:29:30.099Z,76.57
2018-01-16T02:29:43.879Z,76.57
2018-01-16T02:29:57.755Z,76.56
2018-01-16T02:30:11.555Z,76.57
2018-01-16T02:30:25.375Z,76.57
2018-01-16T02:30:39.238Z,76.57
2018-01-16T02:30:53.081Z,76.58
2018-01-16T02:31:06.972Z,76.58
2018-01-16T02:31:20.798Z,76.58
2018-01-16T02:31:34.476Z,76.58
2018-01-16T02:31:48.340Z,76.59
2018-01-16T02:32:02.076Z,76.58
2018-01-16T02:32:16.029Z,76.57
2018-01-16T02:32:29.715Z,76.58
2018-01-16T02:32:43.499Z,76.58
2018-01-16T02:32:57.223Z,76.58
2018-01-16T02:33:10.998Z,76.58
2018-01-16T02:33:24.886Z,76.58
2018-01-16T02:33:38.606Z,76.57
2018-01-16T02:33:53.243Z,76.59
2018-01-16T02:34:06.941Z,76.58
2018-01-16T02:34:20.719Z,76.59
2018-01-16T02:34:34.662Z,76.60
2018-01-16T02:34:48.591Z,76.59
2018-01-16T02:35:02.429Z,76.58
2018-01-16T02:35:16.066Z,76.58
2018-01-16T02:35:29.886Z,76.58
2018-01-16T02:35:44.673Z,76.59
2018-01-16T02:35:59.431Z,76.60
2018-01-16T02:36:13.087Z,76.61
2018-01-16T02:36:26.944Z,76.62
2018-01-16T02:36:40.693Z,76.63
2018-01-16T02:36:54.524Z,76.65
2018-01-16T02:37:08.444Z,76.67
2018-01-16T02:37:22.137Z,76.68
2018-01-16T02:37:35.835Z,76.68
2018-01-16T02:37:49.547Z,76.68
2018-01-16T02:38:03.387Z,76.69
2018-01-16T02:38:17.153Z,76.67
2018-01-16T02:38:30.975Z,76.67
2018-01-16T02:38:44.839Z,76.68
2018-01-16T02:38:58.721Z,76.68
2018-01-16T02:39:12.341Z,76.68
2018-01-16T02:39:25.999Z,76.69
2018-01-16T02:39:39.688Z,76.68
2018-01-16T02:39:53.349Z,76.68
2018-01-16T02:40:07.213Z,76.68
2018-01-16T02:40:21.808Z,76.65
2018-01-16T02:40:35.706Z,76.68
2018-01-16T02:40:49.375Z,76.67
2018-01-16T02:41:03.047Z,76.68
2018-01-16T02:41:16.896Z,76.67
2018-01-16T02:41:30.743Z,76.66
2018-01-16T02:41:44.598Z,76.66
2018-01-16T02:41:58.351Z,76.66
2018-01-16T02:42:11.981Z,76.65
2018-01-16T02:42:25.755Z,76.66
2018-01-16T02:42:39.430Z,76.66
2018-01-16T02:42:53.166Z,76.66
2018-01-16T02:43:06.617Z,76.67
2018-01-16T02:43:21.027Z,76.67
2018-01-16T02:43:34.891Z,76.68
2018-01-16T02:43:48.700Z,76.68
2018-01-16T02:44:02.389Z,76.68
2018-01-16T02:44:16.014Z,76.67
2018-01-16T02:44:29.488Z,76.68
2018-01-16T02:44:43.072Z,76.68
2018-01-16T02:44:56.670Z,76.69
2018-01-16T02:45:10.177Z,76.68
2018-01-16T02:45:23.729Z,76.69
2018-01-16T02:45:37.270Z,76.68
2018-01-16T02:45:51.288Z,76.68
2018-01-16T02:46:05.134Z,76.68
2018-01-16T02:46:18.835Z,76.70
2018-01-16T02:46:32.623Z,76.68
2018-01-16T02:46:46.196Z,76.69
2018-01-16T02:46:59.656Z,76.69
2018-01-16T02:47:13.156Z,76.67
2018-01-16T02:47:26.801Z,76.66
2018-01-16T02:47:40.419Z,76.62
2018-01-16T02:47:54.034Z,76.66
2018-01-16T02:48:07.725Z,76.63
2018-01-16T02:48:21.496Z,76.63
2018-01-16T02:48:35.290Z,76.62
2018-01-16T02:48:49.083Z,76.61
2018-01-16T02:49:02.941Z,76.60
2018-01-16T02:49:16.923Z,76.61
2018-01-16T02:49:30.504Z,76.61
2018-01-16T02:49:44.207Z,76.61
2018-01-16T02:49:57.701Z,76.62
2018-01-16T02:50:11.336Z,76.61
2018-01-16T02:50:24.782Z,76.59
2018-01-16T02:50:38.439Z,76.58
2018-01-16T02:50:51.889Z,76.58
2018-01-16T02:51:05.402Z,76.58
2018-01-16T02:51:19.038Z,76.62
2018-01-16T02:51:32.576Z,76.58
2018-01-16T02:51:46.164Z,76.58
2018-01-16T02:51:59.826Z,76.57
2018-01-16T02:52:13.471Z,76.57
2018-01-16T02:52:27.251Z,76.57
2018-01-16T02:52:41.051Z,76.57
2018-01-16T02:52:54.700Z,76.59
2018-01-16T02:53:08.375Z,76.58
2018-01-16T02:53:22.124Z,76.58
2018-01-16T02:53:36.052Z,76.58
2018-01-16T02:53:49.675Z,76.58
2018-01-16T02:54:03.447Z,76.59
2018-01-16T02:54:17.205Z,76.60
2018-01-16T02:54:31.087Z,76.59
2018-01-16T02:54:44.798Z,76.60
2018-01-16T02:54:58.543Z,76.59
2018-01-16T02:55:11.998Z,76.60
2018-01-16T02:55:25.469Z,76.60
2018-01-16T02:55:39.298Z,76.60
2018-01-16T02:55:53.140Z,76.59
2018-01-16T02:56:06.827Z,76.60
2018-01-16T02:56:20.611Z,76.60
2018-01-16T02:56:34.358Z,76.60
2018-01-16T02:56:48.004Z,76.60
2018-01-16T02:57:01.819Z,76.59
2018-01-16T02:57:15.479Z,76.60
2018-01-16T02:57:29.305Z,76.59
2018-01-16T02:57:42.941Z,76.59
2018-01-16T02:57:56.911Z,76.59